createdAt,value
2023-05-04T00:00:33.505Z,9.23
2023-05-04T00:04:38.645Z,6.60
2023-05-04T00:08:41.762Z,6.88
2023-05-04T00:12:46.321Z,6.15
2023-05-04T00:16:49.490Z,7.50
2023-05-04T00:20:54.096Z,7.03
2023-05-04T00:24:57.049Z,5.95
2023-05-04T00:29:00.145Z,8.93
2023-05-04T00:33:03.160Z,6.32
2023-05-04T00:37:08.089Z,10.68
2023-05-04T00:41:11.225Z,5.65
2023-05-04T00:45:16.152Z,9.63
2023-05-04T00:49:21.421Z,6.13
2023-05-04T00:53:26.438Z,6.95
2023-05-04T00:57:29.710Z,6.47
2023-05-04T01:01:32.949Z,8.43
2023-05-04T01:05:39.792Z,8.23
2023-05-04T01:09:47.294Z,6.40
2023-05-04T01:13:52.713Z,6.32
2023-05-04T01:17:55.899Z,7.28
2023-05-04T01:22:00.448Z,6.38
2023-05-04T01:26:11.379Z,6.70
2023-05-04T01:30:20.150Z,4.97
2023-05-04T01:34:24.189Z,6.35
2023-05-04T01:38:29.692Z,6.32
2023-05-04T01:42:32.850Z,5.82
2023-05-04T01:46:36.048Z,5.80
2023-05-04T01:50:39.236Z,6.43
2023-05-04T01:54:43.771Z,6.15
2023-05-04T01:58:46.957Z,7.47
2023-05-04T02:02:50.171Z,6.10
2023-05-04T02:06:55.751Z,5.57
2023-05-04T02:11:00.514Z,5.53
2023-05-04T02:15:03.637Z,6.90
2023-05-04T02:19:07.312Z,7.00
2023-05-04T02:23:11.660Z,8.02
2023-05-04T02:27:16.150Z,6.22
2023-05-04T02:35:25.196Z,7.30
2023-05-04T02:39:28.270Z,5.32
2023-05-04T02:43:32.705Z,7.10
2023-05-04T02:47:36.163Z,5.75
2023-05-04T02:51:39.305Z,5.82
2023-05-04T02:55:42.456Z,4.47
2023-05-04T02:59:46.910Z,6.53
2023-05-04T03:03:49.981Z,5.97
2023-05-04T03:07:53.271Z,5.28
2023-05-04T03:11:56.744Z,5.30
2023-05-04T03:16:01.428Z,10.70
2023-05-04T03:20:05.503Z,7.22
2023-05-04T03:24:09.908Z,5.80
2023-05-04T03:28:13.725Z,6.47
2023-05-04T03:32:19.610Z,5.97
2023-05-04T03:36:22.976Z,5.00
2023-05-04T03:40:26.734Z,6.63
2023-05-04T03:44:30.838Z,9.15
2023-05-04T03:48:35.339Z,5.43
2023-05-04T03:52:40.914Z,6.60
2023-05-04T03:56:44.816Z,5.10
2023-05-04T04:00:51.599Z,6.43
2023-05-04T04:04:56.166Z,5.30
2023-05-04T04:08:59.611Z,6.50
2023-05-04T04:13:02.814Z,6.43
2023-05-04T04:17:06.421Z,6.60
2023-05-04T04:21:11.275Z,6.00
2023-05-04T04:25:15.364Z,5.32
2023-05-04T04:29:18.912Z,6.35
2023-05-04T04:33:21.969Z,8.07
2023-05-04T04:37:26.679Z,5.28
2023-05-04T04:41:29.734Z,5.43
2023-05-04T04:45:34.045Z,6.65
2023-05-04T04:49:38.608Z,6.50
2023-05-04T04:53:43.116Z,4.97
2023-05-04T04:57:46.165Z,6.72
2023-05-04T05:01:49.872Z,6.15
2023-05-04T05:05:52.996Z,6.38
2023-05-04T05:09:57.832Z,6.05
2023-05-04T05:14:00.893Z,5.00
2023-05-04T05:18:04.019Z,5.93
2023-05-04T05:22:07.174Z,6.90
2023-05-04T05:26:11.813Z,5.60
2023-05-04T05:30:15.151Z,5.78
2023-05-04T05:34:18.174Z,5.38
2023-05-04T05:38:21.619Z,5.60
2023-05-04T05:42:26.006Z,5.22
2023-05-04T05:46:29.172Z,5.93
2023-05-04T05:50:32.176Z,6.00
2023-05-04T05:54:35.873Z,6.47
2023-05-04T05:58:40.655Z,8.73
2023-05-04T06:02:43.770Z,8.73
2023-05-04T06:06:46.832Z,5.78
2023-05-04T06:10:51.610Z,7.03
2023-05-04T06:14:56.024Z,6.68
2023-05-04T06:18:59.962Z,5.22
2023-05-04T06:23:02.985Z,5.13
2023-05-04T06:27:06.034Z,6.97
2023-05-04T06:31:10.578Z,6.30
2023-05-04T06:35:13.860Z,6.43
2023-05-04T06:39:16.944Z,6.32
2023-05-04T06:43:19.926Z,7.68
2023-05-04T06:47:24.400Z,5.90
2023-05-04T06:51:27.476Z,5.57
2023-05-04T06:55:30.599Z,4.78
2023-05-04T06:59:33.626Z,5.60
2023-05-04T07:03:38.957Z,5.80
2023-05-04T07:07:42.025Z,7.78
2023-05-04T07:11:45.170Z,7.00
2023-05-04T07:15:48.195Z,7.97
2023-05-04T07:19:53.265Z,6.15
2023-05-04T07:23:56.383Z,7.55
2023-05-04T07:27:59.497Z,7.57
2023-05-04T07:32:02.639Z,6.63
2023-05-04T07:36:07.581Z,5.65
2023-05-04T07:40:11.617Z,6.40
2023-05-04T07:44:14.670Z,6.85
2023-05-04T07:48:18.159Z,7.22
2023-05-04T07:52:22.818Z,6.85
2023-05-04T07:56:25.862Z,8.82
2023-05-04T08:00:29.261Z,6.82
2023-05-04T08:04:32.360Z,5.65
2023-05-04T08:08:36.853Z,5.95
2023-05-04T08:12:41.495Z,7.53
2023-05-04T08:16:44.537Z,7.45
2023-05-04T08:20:47.562Z,5.63
2023-05-04T08:24:51.998Z,6.43
2023-05-04T08:28:55.008Z,8.13
2023-05-04T08:32:59.256Z,5.57
2023-05-04T08:37:02.454Z,4.78
2023-05-04T08:41:07.356Z,4.45
2023-05-04T08:45:11.015Z,3.47
2023-05-04T08:49:14.097Z,4.60
2023-05-04T08:53:20.165Z,3.60
2023-05-04T08:57:26.295Z,5.88
2023-05-04T09:01:31.083Z,3.38
2023-05-04T09:05:35.361Z,4.10
2023-05-04T09:09:38.377Z,4.00
2023-05-04T09:13:43.858Z,2.67
2023-05-04T09:17:58.232Z,3.08
2023-05-04T09:22:01.796Z,4.40
2023-05-04T09:26:04.943Z,4.38
2023-05-04T09:30:11.369Z,3.65
2023-05-04T09:34:15.135Z,3.25
2023-05-04T09:38:26.703Z,4.10
2023-05-04T09:42:29.874Z,5.80
2023-05-04T09:46:36.348Z,3.90
2023-05-04T09:50:40.268Z,4.40
2023-05-04T09:54:46.796Z,5.85
2023-05-04T09:58:50.316Z,3.42
2023-05-04T10:02:55.203Z,4.05
2023-05-04T10:06:58.388Z,3.88
2023-05-04T10:11:01.912Z,3.55
2023-05-04T10:15:09.105Z,5.40
2023-05-04T10:19:43.932Z,4.32
2023-05-04T10:24:12.087Z,6.70
2023-05-04T10:28:28.556Z,4.25
2023-05-04T10:32:32.578Z,4.07
2023-05-04T10:36:41.709Z,2.95
2023-05-04T10:40:49.748Z,2.80
2023-05-04T10:44:55.079Z,4.38
2023-05-04T10:48:58.369Z,3.97
2023-05-04T10:53:02.782Z,3.50
2023-05-04T10:57:06.887Z,4.00
2023-05-04T11:01:13.179Z,2.95
2023-05-04T11:05:20.222Z,3.38
2023-05-04T11:09:24.997Z,2.63
2023-05-04T11:13:29.948Z,2.70
2023-05-04T11:17:34.486Z,3.92
2023-05-04T11:21:37.645Z,2.53
2023-05-04T11:25:42.041Z,3.50
2023-05-04T11:29:54.583Z,2.58
2023-05-04T11:33:57.607Z,3.83
2023-05-04T11:38:00.977Z,4.63
2023-05-04T11:42:09.107Z,3.63
2023-05-04T11:46:12.920Z,2.92
2023-05-04T11:50:17.846Z,2.70
2023-05-04T11:54:22.233Z,3.08
2023-05-04T11:58:27.085Z,2.15
2023-05-04T12:02:30.211Z,4.55
2023-05-04T12:06:34.308Z,5.35
2023-05-04T12:10:37.304Z,2.83
2023-05-04T12:14:50.204Z,2.90
2023-05-04T12:19:03.825Z,2.47
2023-05-04T12:23:08.671Z,2.97
2023-05-04T12:27:15.112Z,2.90
2023-05-04T12:31:19.754Z,3.42
2023-05-04T12:35:23.008Z,2.25
2023-05-04T12:39:28.047Z,2.40
2023-05-04T12:43:31.258Z,4.15
2023-05-04T12:47:35.782Z,3.30
2023-05-04T12:51:38.833Z,2.72
2023-05-04T12:55:42.701Z,3.88
2023-05-04T12:59:45.763Z,2.00
2023-05-04T13:03:50.716Z,3.13
2023-05-04T13:07:54.397Z,2.85
2023-05-04T13:11:57.439Z,3.30
2023-05-04T13:16:00.737Z,2.95
2023-05-04T13:20:06.829Z,3.28
2023-05-04T13:24:11.389Z,3.50
2023-05-04T13:28:14.611Z,1.88
2023-05-04T13:32:17.677Z,2.90
2023-05-04T13:36:22.091Z,4.13
2023-05-04T13:40:25.105Z,2.55
2023-05-04T13:44:28.255Z,2.78
2023-05-04T13:48:33.046Z,4.38
2023-05-04T13:52:38.032Z,1.88
2023-05-04T13:56:41.088Z,2.20
2023-05-04T14:00:44.253Z,2.35
2023-05-04T14:04:47.328Z,2.67
2023-05-04T14:08:51.871Z,2.42
2023-05-04T14:12:55.077Z,3.05
2023-05-04T14:16:58.227Z,2.45
2023-05-04T14:21:01.445Z,2.75
2023-05-04T14:25:07.102Z,2.45
2023-05-04T14:29:10.312Z,2.33
2023-05-04T14:33:13.391Z,1.95
2023-05-04T14:37:16.842Z,2.70
2023-05-04T14:41:21.251Z,12.55
2023-05-04T14:45:24.365Z,2.30
2023-05-04T14:49:36.705Z,3.22
2023-05-04T14:53:41.116Z,4.13
2023-05-04T14:57:45.568Z,2.72
2023-05-04T15:01:48.695Z,2.05
2023-05-04T15:05:51.871Z,2.25
2023-05-04T15:09:55.035Z,4.20
2023-05-04T15:13:59.485Z,3.15
2023-05-04T15:18:02.694Z,2.83
2023-05-04T15:22:06.073Z,2.45
2023-05-04T15:26:09.098Z,3.50
2023-05-04T15:30:14.194Z,3.35
2023-05-04T15:34:18.635Z,3.28
2023-05-04T15:38:22.086Z,2.05
2023-05-04T15:42:25.136Z,2.13
2023-05-04T15:46:29.578Z,2.47
2023-05-04T15:50:33.261Z,2.55
2023-05-04T15:54:36.451Z,2.17
2023-05-04T15:58:39.450Z,3.78
2023-05-04T16:02:43.970Z,1.67
2023-05-04T16:06:47.827Z,2.40
2023-05-04T16:10:52.021Z,2.60
2023-05-04T16:14:55.047Z,2.63
2023-05-04T16:18:59.471Z,3.60
2023-05-04T16:23:03.001Z,2.47
2023-05-04T16:27:06.818Z,3.55
2023-05-04T16:31:12.001Z,2.20
2023-05-04T16:35:16.774Z,8.50
2023-05-04T16:39:20.359Z,2.50
2023-05-04T16:43:24.080Z,5.43
2023-05-04T16:47:28.380Z,2.33
2023-05-04T16:51:32.885Z,2.63
2023-05-04T16:55:37.233Z,1.90
2023-05-04T16:59:40.997Z,6.75
2023-05-04T17:03:44.250Z,5.55
2023-05-04T17:07:50.918Z,2.63
2023-05-04T17:11:54.213Z,2.60
2023-05-04T17:15:59.868Z,1.88
2023-05-04T17:20:08.552Z,2.72
2023-05-04T17:24:18.490Z,2.35
2023-05-04T17:28:21.485Z,2.67
2023-05-04T17:32:24.572Z,3.08
2023-05-04T17:36:28.173Z,3.00
2023-05-04T17:40:32.594Z,2.50
2023-05-04T17:44:35.621Z,5.45
2023-05-04T17:48:38.937Z,2.10
2023-05-04T17:52:41.932Z,3.13
2023-05-04T17:56:46.336Z,3.10
2023-05-04T18:00:51.332Z,2.45
2023-05-04T18:04:56.265Z,4.28
2023-05-04T18:08:59.663Z,4.13
2023-05-04T18:13:04.234Z,2.63
2023-05-04T18:17:07.920Z,2.00
2023-05-04T18:21:11.148Z,2.53
2023-05-04T18:25:15.385Z,2.10
2023-05-04T18:29:19.928Z,3.17
2023-05-04T18:33:23.109Z,4.00
2023-05-04T18:37:26.549Z,3.45
2023-05-04T18:41:29.881Z,3.35
2023-05-04T18:45:34.577Z,3.33
2023-05-04T18:49:37.601Z,2.13
2023-05-04T18:53:40.679Z,3.75
2023-05-04T18:57:44.333Z,2.80
2023-05-04T19:01:48.732Z,3.45
2023-05-04T19:05:51.973Z,2.70
2023-05-04T19:09:55.466Z,2.78
2023-05-04T19:13:58.986Z,3.70
2023-05-04T19:18:03.785Z,2.80
2023-05-04T19:22:07.475Z,3.05
2023-05-04T19:26:10.530Z,5.10
2023-05-04T19:30:13.866Z,3.90
2023-05-04T19:34:18.321Z,3.03
2023-05-04T19:38:21.323Z,5.22
2023-05-04T19:42:24.438Z,3.00
2023-05-04T19:46:27.446Z,3.47
2023-05-04T19:50:32.152Z,5.03
2023-05-04T19:54:38.318Z,3.08
2023-05-04T19:58:41.572Z,3.50
2023-05-04T20:02:44.716Z,3.85
2023-05-04T20:06:49.250Z,4.20
2023-05-04T20:10:52.266Z,3.08
2023-05-04T20:14:55.520Z,3.88
2023-05-04T20:18:59.604Z,3.88
2023-05-04T20:23:05.052Z,3.47
2023-05-04T20:27:08.280Z,2.58
2023-05-04T20:31:12.252Z,3.88
2023-05-04T20:35:15.228Z,4.25
2023-05-04T20:39:19.962Z,2.92
2023-05-04T20:43:22.929Z,4.57
2023-05-04T20:47:26.307Z,4.75
2023-05-04T20:51:29.595Z,4.03
2023-05-04T20:55:33.972Z,3.20
2023-05-04T20:59:37.039Z,4.75
2023-05-04T21:03:40.186Z,5.00
2023-05-04T21:07:43.287Z,3.97
2023-05-04T21:11:47.729Z,2.97
2023-05-04T21:15:51.086Z,6.80
2023-05-04T21:19:54.244Z,4.38
2023-05-04T21:23:57.244Z,5.32
2023-05-04T21:28:01.711Z,3.53
2023-05-04T21:32:05.924Z,5.13
2023-05-04T21:36:13.834Z,4.25
2023-05-04T21:40:16.858Z,7.60
2023-05-04T21:44:21.265Z,5.25
2023-05-04T21:48:24.329Z,6.43
2023-05-04T21:52:27.533Z,6.18
2023-05-04T21:56:31.496Z,5.32
2023-05-04T22:00:36.095Z,9.00
2023-05-04T22:04:43.396Z,7.32
2023-05-04T22:08:46.701Z,4.18
2023-05-04T22:12:49.884Z,5.32
2023-05-04T22:16:54.561Z,6.10
2023-05-04T22:20:57.715Z,5.72
2023-05-04T22:25:00.724Z,4.97
2023-05-04T22:29:03.695Z,4.85
2023-05-04T22:33:08.245Z,6.68
2023-05-04T22:37:12.005Z,3.92
2023-05-04T22:41:15.122Z,5.53
2023-05-04T22:45:18.751Z,6.07
2023-05-04T22:49:23.136Z,5.30
2023-05-04T22:53:26.231Z,3.95
2023-05-04T22:57:29.296Z,4.68
2023-05-04T23:01:32.527Z,5.93
2023-05-04T23:05:37.374Z,5.25
2023-05-04T23:09:43.259Z,5.82
2023-05-04T23:13:46.246Z,6.43
2023-05-04T23:17:49.467Z,5.13
2023-05-04T23:21:54.114Z,6.13
2023-05-04T23:25:57.286Z,5.13
2023-05-04T23:30:00.385Z,4.88
2023-05-04T23:34:03.422Z,8.77
2023-05-04T23:38:11.001Z,5.95
2023-05-04T23:42:14.136Z,7.35
2023-05-04T23:46:17.193Z,6.00
2023-05-04T23:50:20.225Z,7.68
2023-05-04T23:54:24.661Z,4.70
2023-05-04T23:58:28.033Z,5.30
